Time;durP1;ratioP1;P1;durP2;ratioP2;P2;SDS_P1;SDS_P2;PMS_P1;PMS_P2;Temp;Humidity;BMP_temperature;BMP_pressure;BME280_temperature;BME280_humidity;BME280_pressure;Samples;Min_cycle;Max_cycle;Signal;HPM_P1;HPM_P2
2020/12/10 00:01:49;;;;;;;202.02;54.20;;;3.50;99.90;;;;;;5054550;28;20272;-81
2020/12/10 00:04:16;;;;;;;195.77;56.58;;;3.50;99.90;;;;;;5054470;28;20025;-81
2020/12/10 00:06:41;;;;;;;173.20;51.95;;;3.50;99.90;;;;;;5054593;28;20033;-80
2020/12/10 00:09:07;;;;;;;179.60;51.42;;;3.60;99.90;;;;;;5052961;28;20021;-81
2020/12/10 00:11:34;;;;;;;173.88;53.40;;;3.60;99.90;;;;;;5054421;28;20164;-81
2020/12/10 00:14:01;;;;;;;177.43;51.63;;;3.60;99.90;;;;;;5052880;28;20032;-81
2020/12/10 00:16:27;;;;;;;189.57;51.08;;;3.60;99.90;;;;;;5054506;28;20107;-81
2020/12/10 00:18:52;;;;;;;164.38;49.97;;;3.60;99.90;;;;;;5054071;28;20060;-81
2020/12/10 00:21:22;;;;;;;211.68;53.63;;;3.60;99.90;;;;;;5052730;28;20037;-81
2020/12/10 00:23:49;;;;;;;193.65;54.17;;;3.60;99.90;;;;;;5054051;28;20028;-81
2020/12/10 00:26:15;;;;;;;181.60;53.47;;;3.60;99.90;;;;;;5054207;28;20100;-81
2020/12/10 00:28:41;;;;;;;181.23;53.50;;;3.60;99.90;;;;;;5052728;28;20074;-81
2020/12/10 00:31:06;;;;;;;165.35;47.53;;;3.60;99.90;;;;;;5054234;28;20037;-80
2020/12/10 00:33:32;;;;;;;173.57;52.30;;;3.60;99.90;;;;;;5053940;28;20021;-81
2020/12/10 00:35:57;;;;;;;181.38;53.95;;;3.60;99.90;;;;;;5052472;28;20032;-81
2020/12/10 00:38:23;;;;;;;161.75;49.63;;;3.60;99.90;;;;;;5052546;28;20028;-81
2020/12/10 00:40:49;;;;;;;178.15;47.47;;;3.60;99.90;;;;;;5053938;28;20100;-81
2020/12/10 00:43:14;;;;;;;188.57;52.90;;;3.60;99.90;;;;;;5053513;28;20481;-81
2020/12/10 00:45:40;;;;;;;181.00;53.30;;;3.60;99.90;;;;;;5053696;28;20025;-81
2020/12/10 00:48:05;;;;;;;199.98;55.33;;;3.60;99.90;;;;;;5053362;28;20481;-81
2020/12/10 00:50:31;;;;;;;176.18;54.20;;;3.60;99.90;;;;;;5053695;28;20032;-81
2020/12/10 00:52:57;;;;;;;175.25;53.72;;;3.50;99.90;;;;;;5053737;28;20578;-81
2020/12/10 00:55:22;;;;;;;193.48;55.88;;;3.60;99.90;;;;;;5052265;28;20025;-81
2020/12/10 00:57:49;;;;;;;198.20;57.85;;;3.60;99.90;;;;;;5052159;28;20033;-81
2020/12/10 01:00:15;;;;;;;175.90;53.13;;;3.50;99.90;;;;;;5053448;28;20017;-80
2020/12/10 01:02:41;;;;;;;188.00;56.53;;;3.50;99.90;;;;;;5053516;28;20132;-81
2020/12/10 01:05:07;;;;;;;188.13;53.38;;;3.50;99.90;;;;;;5052279;28;20178;-81
2020/12/10 01:07:33;;;;;;;175.40;52.47;;;3.50;99.90;;;;;;5051939;28;20021;-81
2020/12/10 01:09:59;;;;;;;204.20;58.63;;;3.50;99.90;;;;;;5052147;28;20079;-81
2020/12/10 01:12:25;;;;;;;201.52;54.42;;;3.60;99.90;;;;;;5053022;28;20424;-80
2020/12/10 01:14:51;;;;;;;189.82;53.83;;;3.50;99.90;;;;;;5053187;28;20076;-81
2020/12/10 01:17:16;;;;;;;204.77;58.13;;;3.50;99.90;;;;;;5053247;28;20052;-80
2020/12/10 01:19:42;;;;;;;182.18;55.25;;;3.50;99.90;;;;;;5052492;28;20036;-81
2020/12/10 01:22:07;;;;;;;198.48;53.67;;;3.50;99.90;;;;;;5053040;28;20583;-81
2020/12/10 01:24:33;;;;;;;152.20;48.42;;;3.60;99.90;;;;;;5052997;28;20100;-80
2020/12/10 01:26:59;;;;;;;156.45;48.88;;;3.60;99.90;;;;;;5051809;28;20025;-81
2020/12/10 01:29:24;;;;;;;181.13;55.67;;;3.60;99.90;;;;;;5052870;28;20033;-80
2020/12/10 01:31:51;;;;;;;182.23;57.50;;;3.60;99.90;;;;;;5052847;28;20556;-81
2020/12/10 01:34:16;;;;;;;167.50;54.05;;;3.50;99.90;;;;;;5052569;28;20024;-81
2020/12/10 01:36:42;;;;;;;175.55;52.83;;;3.50;99.90;;;;;;5051656;28;20029;-81
2020/12/10 01:39:08;;;;;;;155.90;50.53;;;3.50;99.90;;;;;;5052570;28;20033;-81
2020/12/10 01:41:34;;;;;;;154.25;53.85;;;3.50;99.90;;;;;;5052539;28;20404;-81
2020/12/10 01:44:11;;;;;;;148.98;50.63;;;3.50;99.90;;;;;;5052408;28;20485;-81
2020/12/10 01:46:38;;;;;;;140.13;49.90;;;3.50;99.90;;;;;;5052550;28;20066;-81
2020/12/10 01:49:05;;;;;;;141.77;50.00;;;3.40;99.90;;;;;;5052381;28;20431;-82
2020/12/10 01:51:31;;;;;;;153.50;52.67;;;3.40;99.90;;;;;;5052530;28;20028;-81
2020/12/10 01:53:58;;;;;;;146.43;49.90;;;3.40;99.90;;;;;;5052533;28;20120;-81
2020/12/10 01:56:24;;;;;;;146.13;51.88;;;3.40;99.90;;;;;;5052530;28;20210;-81
2020/12/10 01:58:50;;;;;;;135.45;51.00;;;3.50;99.90;;;;;;5050917;28;20065;-81
2020/12/10 02:01:16;;;;;;;135.00;49.42;;;3.40;99.90;;;;;;5052147;28;20029;-81
2020/12/10 02:03:41;;;;;;;127.15;46.53;;;3.50;99.90;;;;;;5052245;28;20033;-81
2020/12/10 02:06:07;;;;;;;129.00;48.38;;;3.40;99.90;;;;;;5052338;28;20025;-81
2020/12/10 02:08:33;;;;;;;132.93;48.40;;;3.50;99.90;;;;;;5051989;28;20109;-81
2020/12/10 02:10:58;;;;;;;133.13;48.72;;;3.50;99.90;;;;;;5051759;28;20124;-81
2020/12/10 02:13:24;;;;;;;144.77;49.10;;;3.40;99.90;;;;;;5052019;28;20135;-80
2020/12/10 02:15:51;;;;;;;132.52;48.80;;;3.40;99.90;;;;;;5051676;28;20043;-81
2020/12/10 02:18:17;;;;;;;150.43;50.85;;;3.50;99.90;;;;;;5051860;28;20044;-80
2020/12/10 02:20:43;;;;;;;118.43;47.03;;;3.40;99.90;;;;;;5051998;28;20047;-81
2020/12/10 02:23:11;;;;;;;118.72;46.15;;;3.50;99.90;;;;;;5051943;28;20029;-81
2020/12/10 02:25:38;;;;;;;128.40;46.15;;;3.50;99.90;;;;;;5051881;28;20099;-81
2020/12/10 02:28:11;;;;;;;124.45;45.28;;;3.50;99.90;;;;;;5051766;28;20039;-81
2020/12/10 02:30:39;;;;;;;123.50;46.55;;;3.50;99.90;;;;;;5051775;28;20033;-81
2020/12/10 02:33:06;;;;;;;129.15;46.55;;;3.50;99.90;;;;;;5051855;28;20028;-81
2020/12/10 02:35:34;;;;;;;132.88;45.40;;;3.50;99.90;;;;;;5051664;28;20482;-81
2020/12/10 02:38:02;;;;;;;134.48;48.30;;;3.50;99.90;;;;;;5051475;28;20381;-80
2020/12/10 02:40:31;;;;;;;132.98;47.58;;;3.50;99.90;;;;;;5050505;28;20025;-80
2020/12/10 02:42:57;;;;;;;140.13;49.00;;;3.50;99.90;;;;;;5051309;28;20499;-81
2020/12/10 02:45:23;;;;;;;115.82;43.80;;;3.50;99.90;;;;;;5050310;28;20389;-80
2020/12/10 02:47:49;;;;;;;137.80;47.63;;;3.50;99.90;;;;;;5051666;28;20388;-80
2020/12/10 02:50:15;;;;;;;131.23;49.17;;;3.50;99.90;;;;;;5051445;28;20025;-81
2020/12/10 02:52:41;;;;;;;125.70;45.78;;;3.50;99.90;;;;;;5051607;28;20025;-80
2020/12/10 02:55:06;;;;;;;125.25;47.47;;;3.50;99.90;;;;;;5051559;28;20032;-80
2020/12/10 02:57:32;;;;;;;110.22;42.55;;;3.50;99.90;;;;;;5050065;28;20408;-81
2020/12/10 02:59:58;;;;;;;127.47;47.97;;;3.50;99.90;;;;;;5050244;28;20029;-80
2020/12/10 03:02:23;;;;;;;129.05;46.55;;;3.50;99.90;;;;;;5051513;28;20017;-81
2020/12/10 03:04:49;;;;;;;112.63;43.45;;;3.50;99.90;;;;;;5050108;28;20048;-80
2020/12/10 03:07:15;;;;;;;103.40;41.30;;;3.60;99.90;;;;;;5050770;28;20021;-81
2020/12/10 03:09:42;;;;;;;116.70;43.63;;;3.60;99.90;;;;;;5050522;28;20477;-81
2020/12/10 03:12:09;;;;;;;108.88;42.25;;;3.60;99.90;;;;;;5050047;28;20063;-80
2020/12/10 03:14:35;;;;;;;105.32;40.60;;;3.60;99.90;;;;;;5030133;28;20056;-81
2020/12/10 03:17:01;;;;;;;106.32;41.75;;;3.60;99.90;;;;;;5031507;28;20036;-80
2020/12/10 03:19:26;;;;;;;103.13;40.60;;;3.70;99.90;;;;;;5043403;28;20033;-81
2020/12/10 03:21:52;;;;;;;100.82;41.10;;;3.70;99.90;;;;;;5051248;28;20087;-80
2020/12/10 03:24:17;;;;;;;110.03;41.22;;;3.70;99.90;;;;;;5051215;28;20052;-80
2020/12/10 03:26:43;;;;;;;102.30;42.90;;;3.70;99.90;;;;;;5051300;28;20032;-81
2020/12/10 03:29:09;;;;;;;105.65;41.70;;;3.70;99.90;;;;;;5053495;28;20077;-80
2020/12/10 03:31:36;;;;;;;109.22;43.92;;;3.70;99.90;;;;;;5053993;28;20032;-80
2020/12/10 03:34:02;;;;;;;115.05;42.08;;;3.70;99.90;;;;;;5053787;28;20032;-81
2020/12/10 03:36:44;;;;;;;110.43;42.83;;;3.70;99.90;;;;;;5055194;28;20029;-81
2020/12/10 03:39:10;;;;;;;103.65;42.13;;;3.70;99.90;;;;;;5054854;28;20437;-81
2020/12/10 03:41:35;;;;;;;110.68;42.50;;;3.70;99.90;;;;;;5054767;28;20114;-81
2020/12/10 03:44:01;;;;;;;114.40;42.25;;;3.70;99.90;;;;;;5054673;28;20143;-81
2020/12/10 03:46:26;;;;;;;109.45;40.03;;;3.70;99.90;;;;;;5054973;28;20032;-81
2020/12/10 03:48:52;;;;;;;111.75;42.78;;;3.70;99.90;;;;;;5053318;28;20131;-80
2020/12/10 03:51:17;;;;;;;113.40;43.38;;;3.70;99.90;;;;;;5054774;28;20097;-80
2020/12/10 03:53:43;;;;;;;116.50;44.00;;;3.70;99.90;;;;;;5053338;28;20025;-80
2020/12/10 03:56:08;;;;;;;115.53;42.20;;;3.70;99.90;;;;;;5054801;28;20071;-81
2020/12/10 03:58:34;;;;;;;114.25;43.13;;;3.70;99.90;;;;;;5054534;28;20512;-80
2020/12/10 04:00:59;;;;;;;117.70;41.10;;;3.80;99.90;;;;;;5054697;28;20071;-81
2020/12/10 04:03:25;;;;;;;115.22;43.20;;;3.80;99.90;;;;;;5054586;28;20025;-80
2020/12/10 04:05:51;;;;;;;114.25;42.22;;;3.80;99.90;;;;;;5053233;28;20021;-81
2020/12/10 04:08:16;;;;;;;105.63;42.03;;;3.80;99.90;;;;;;5054177;28;20032;-80
2020/12/10 04:10:42;;;;;;;113.72;42.53;;;3.70;99.90;;;;;;5054384;28;20100;-81
2020/12/10 04:13:07;;;;;;;113.72;41.83;;;3.70;99.90;;;;;;5054165;28;20466;-81
2020/12/10 04:15:33;;;;;;;107.05;40.50;;;3.70;99.90;;;;;;5053077;28;20064;-81
2020/12/10 04:17:58;;;;;;;114.13;41.72;;;3.70;99.90;;;;;;5054189;28;20044;-81
2020/12/10 04:20:24;;;;;;;104.85;41.10;;;3.80;99.90;;;;;;5053048;28;20104;-80
2020/12/10 04:22:49;;;;;;;110.65;39.88;;;3.80;99.90;;;;;;5054156;28;20504;-81
2020/12/10 04:25:15;;;;;;;105.70;39.88;;;3.70;99.90;;;;;;5053985;28;20385;-81
2020/12/10 04:27:40;;;;;;;113.50;40.55;;;3.70;99.90;;;;;;5053931;28;20083;-80
2020/12/10 04:30:06;;;;;;;106.22;40.70;;;3.70;99.90;;;;;;5054228;28;20025;-81
2020/12/10 04:32:31;;;;;;;119.22;42.65;;;3.70;99.90;;;;;;5052850;28;20093;-81
2020/12/10 04:34:57;;;;;;;114.97;40.88;;;3.70;99.90;;;;;;5053871;28;20029;-80
2020/12/10 04:37:23;;;;;;;106.20;40.40;;;3.70;99.90;;;;;;5054061;28;20021;-81
2020/12/10 04:39:48;;;;;;;111.75;41.03;;;3.70;99.90;;;;;;5053504;28;20029;-80
2020/12/10 04:42:16;;;;;;;106.53;39.13;;;3.70;99.90;;;;;;5053466;28;20568;-81
2020/12/10 04:44:41;;;;;;;120.30;41.88;;;3.70;99.90;;;;;;5052529;28;20115;-80
2020/12/10 04:47:10;;;;;;;115.15;38.88;;;3.70;99.90;;;;;;5052643;28;20112;-80
2020/12/10 04:49:36;;;;;;;118.20;39.67;;;3.70;99.90;;;;;;5053573;28;20017;-81
2020/12/10 04:52:02;;;;;;;106.63;38.45;;;3.80;99.90;;;;;;5053288;28;20029;-80
2020/12/10 04:54:28;;;;;;;113.18;41.03;;;3.80;99.90;;;;;;5053592;28;20025;-80
2020/12/10 04:56:54;;;;;;;101.85;38.72;;;3.70;99.90;;;;;;5053615;28;20029;-80
2020/12/10 04:59:19;;;;;;;102.70;36.28;;;3.80;99.90;;;;;;5053341;28;20469;-80
2020/12/10 05:01:45;;;;;;;116.72;37.38;;;3.80;99.90;;;;;;5053466;28;20392;-80
2020/12/10 05:04:11;;;;;;;112.28;40.72;;;3.80;99.90;;;;;;5053398;28;20052;-81
2020/12/10 05:06:49;;;;;;;103.88;37.45;;;3.70;99.90;;;;;;5052216;28;20021;-81
2020/12/10 05:09:15;;;;;;;112.90;37.13;;;3.70;99.90;;;;;;5052051;28;20385;-81
2020/12/10 05:11:40;;;;;;;89.78;32.95;;;3.70;99.90;;;;;;5053267;28;20029;-80
2020/12/10 05:14:06;;;;;;;109.60;35.70;;;3.80;99.90;;;;;;5052992;28;20032;-81
2020/12/10 05:16:32;;;;;;;110.30;36.65;;;3.70;99.90;;;;;;5053332;28;20540;-80
2020/12/10 05:19:21;;;;;;;103.00;33.78;;;3.70;99.90;;;;;;5052879;28;20024;-81
2020/12/10 05:22:19;;;;;;;95.70;35.60;;;3.70;99.90;;;;;;5053048;28;20028;-81
2020/12/10 05:24:45;;;;;;;83.80;32.72;;;3.70;99.90;;;;;;5008901;28;20084;-81
2020/12/10 05:27:15;;;;;;;96.30;34.40;;;3.70;99.90;;;;;;5053039;28;20044;-81
2020/12/10 05:29:40;;;;;;;95.65;32.85;;;3.70;99.90;;;;;;5052921;28;20068;-80
2020/12/10 05:32:06;;;;;;;103.32;34.60;;;3.80;99.90;;;;;;5053061;28;20458;-81
2020/12/10 05:34:32;;;;;;;90.90;34.50;;;3.70;99.90;;;;;;5052740;28;20033;-81
2020/12/10 05:36:57;;;;;;;100.43;32.90;;;3.80;99.90;;;;;;5052953;28;20021;-81
2020/12/10 05:39:23;;;;;;;97.70;32.70;;;3.80;99.90;;;;;;5052652;28;20090;-81
2020/12/10 05:41:53;;;;;;;90.80;33.15;;;3.80;99.90;;;;;;5052292;28;20036;-81
2020/12/10 05:44:24;;;;;;;87.03;33.58;;;3.70;99.90;;;;;;5051021;28;20112;-81
2020/12/10 05:47:01;;;;;;;92.30;34.17;;;3.70;99.90;;;;;;5052764;28;20021;-80
2020/12/10 05:49:27;;;;;;;113.63;35.40;;;3.70;99.90;;;;;;5052436;28;20036;-80
2020/12/10 05:52:01;;;;;;;103.88;33.95;;;3.80;99.90;;;;;;5052137;28;20029;-80
2020/12/10 05:54:32;;;;;;;105.53;36.25;;;3.80;99.90;;;;;;5052427;28;20032;-80
2020/12/10 05:57:00;;;;;;;116.05;37.53;;;3.80;99.90;;;;;;5052540;28;20025;-81
2020/12/10 05:59:29;;;;;;;118.55;38.90;;;3.80;99.90;;;;;;5052241;28;20029;-81
2020/12/10 06:01:57;;;;;;;123.65;39.47;;;3.80;99.90;;;;;;5052321;28;20087;-81
2020/12/10 06:04:24;;;;;;;115.45;36.00;;;3.80;99.90;;;;;;5052237;28;20017;-80
2020/12/10 06:06:51;;;;;;;133.13;41.72;;;3.80;99.90;;;;;;5051096;28;20048;-81
2020/12/10 06:09:19;;;;;;;119.65;38.28;;;3.80;99.90;;;;;;5050742;28;20033;-81
2020/12/10 06:11:45;;;;;;;112.25;38.03;;;3.70;99.90;;;;;;5051687;28;20033;-81
2020/12/10 06:14:11;;;;;;;121.20;37.95;;;3.70;99.90;;;;;;5050549;28;20033;-81
2020/12/10 06:16:37;;;;;;;113.30;36.83;;;3.70;99.90;;;;;;5052239;28;20094;-81
2020/12/10 06:19:10;;;;;;;109.05;37.65;;;3.80;99.90;;;;;;5052013;28;20086;-80
2020/12/10 06:21:43;;;;;;;104.57;37.95;;;3.70;99.90;;;;;;5052033;28;20044;-81
2020/12/10 06:24:27;;;;;;;113.13;40.35;;;3.70;99.90;;;;;;5050655;28;20456;-81
2020/12/10 06:26:57;;;;;;;111.15;38.55;;;3.70;99.90;;;;;;5052160;28;20100;-81
2020/12/10 06:29:28;;;;;;;107.03;36.10;;;3.70;99.90;;;;;;5051996;28;20559;-81
2020/12/10 06:32:01;;;;;;;106.53;38.33;;;3.70;99.90;;;;;;5050593;28;20040;-80
2020/12/10 06:34:43;;;;;;;117.55;39.38;;;3.70;99.90;;;;;;5050393;28;20032;-81
2020/12/10 06:37:29;;;;;;;123.63;39.53;;;3.70;99.90;;;;;;5051699;28;20072;-81
2020/12/10 06:40:05;;;;;;;122.50;41.22;;;3.70;99.90;;;;;;5051914;28;20100;-81
2020/12/10 06:42:47;;;;;;;114.88;41.40;;;3.70;99.90;;;;;;5051610;28;20267;-81
2020/12/10 06:45:22;;;;;;;112.82;40.60;;;3.60;99.90;;;;;;5052225;28;20028;-81
2020/12/10 06:47:48;;;;;;;121.00;39.38;;;3.60;99.90;;;;;;5051871;28;20154;-81
2020/12/10 06:50:21;;;;;;;114.82;40.97;;;3.60;99.90;;;;;;5050430;28;20161;-81
2020/12/10 06:53:12;;;;;;;127.00;40.17;;;3.60;99.90;;;;;;5050191;28;20059;-81
2020/12/10 06:55:59;;;;;;;106.03;38.33;;;3.60;99.90;;;;;;5050269;28;20121;-80
2020/12/10 06:58:41;;;;;;;98.45;37.08;;;3.60;99.90;;;;;;5051543;28;20094;-81
2020/12/10 07:01:28;;;;;;;100.47;38.42;;;3.50;99.90;;;;;;5051589;28;20021;-80
2020/12/10 07:04:19;;;;;;;95.63;36.05;;;3.60;99.90;;;;;;5053472;28;20373;-81
2020/12/10 07:07:07;;;;;;;92.78;37.45;;;3.60;99.90;;;;;;5055817;28;20013;-81
2020/12/10 07:10:05;;;;;;;87.68;34.33;;;3.60;99.90;;;;;;5055477;28;20094;-81
2020/12/10 07:12:37;;;;;;;83.97;34.30;;;3.50;99.90;;;;;;5054922;28;20044;-81
2020/12/10 07:15:29;;;;;;;88.85;35.47;;;3.50;99.90;;;;;;5054193;28;20017;-81
2020/12/10 07:17:54;;;;;;;66.20;30.52;;;3.50;99.90;;;;;;5053520;28;20037;-81
2020/12/10 07:20:21;;;;;;;74.25;31.98;;;3.50;99.90;;;;;;5054164;28;20032;-80
2020/12/10 07:22:47;;;;;;;75.60;33.25;;;3.40;99.90;;;;;;5055097;28;20020;-81
2020/12/10 07:25:13;;;;;;;66.85;31.75;;;3.50;99.90;;;;;;5053924;28;20025;-81
2020/12/10 07:27:42;;;;;;;78.50;32.72;;;3.40;99.90;;;;;;5055276;28;20427;-81
2020/12/10 07:30:12;;;;;;;70.43;31.00;;;3.40;99.90;;;;;;5055410;28;20056;-81
2020/12/10 07:32:39;;;;;;;70.35;30.77;;;3.40;99.90;;;;;;5055173;28;20021;-80
2020/12/10 07:35:05;;;;;;;63.55;29.70;;;3.40;99.90;;;;;;5054801;28;20033;-80
2020/12/10 07:37:32;;;;;;;61.92;28.77;;;3.30;99.90;;;;;;5055197;28;20029;-81
2020/12/10 07:40:14;;;;;;;67.45;30.25;;;3.40;99.90;;;;;;5055182;28;20013;-81
2020/12/10 07:42:40;;;;;;;65.70;30.52;;;3.30;99.90;;;;;;5054777;28;20032;-80
2020/12/10 07:45:19;;;;;;;72.13;29.80;;;3.30;99.90;;;;;;5053564;28;20025;-80
2020/12/10 07:47:58;;;;;;;62.33;30.75;;;3.30;99.90;;;;;;5053791;28;20076;-80
2020/12/10 07:50:29;;;;;;;73.90;31.48;;;3.30;99.90;;;;;;5054948;28;20090;-81
2020/12/10 07:52:56;;;;;;;61.72;28.67;;;3.30;99.90;;;;;;5053516;28;20044;-80
2020/12/10 07:55:23;;;;;;;71.40;31.40;;;3.30;99.90;;;;;;5052076;28;20104;-80
2020/12/10 07:58:04;;;;;;;65.50;30.27;;;3.30;99.90;;;;;;5053723;28;20154;-80
2020/12/10 08:00:30;;;;;;;66.93;29.92;;;3.40;99.90;;;;;;5053089;28;20052;-79
2020/12/10 08:03:20;;;;;;;61.40;28.60;;;3.30;99.90;;;;;;5053397;28;20374;-80
2020/12/10 08:05:59;;;;;;;71.28;29.20;;;3.40;99.90;;;;;;5034143;28;20600;-79
2020/12/10 08:08:42;;;;;;;64.72;28.35;;;3.40;99.90;;;;;;5034365;28;20396;-79
2020/12/10 08:11:17;;;;;;;60.25;28.20;;;3.40;99.90;;;;;;5049059;28;20032;-80
2020/12/10 08:14:08;;;;;;;67.97;30.33;;;3.40;99.90;;;;;;5053290;28;20072;-80
2020/12/10 08:16:39;;;;;;;60.50;28.50;;;3.30;99.90;;;;;;5053583;28;20032;-80
2020/12/10 08:19:23;;;;;;;57.38;27.55;;;3.30;99.90;;;;;;5052191;28;20020;-80
2020/12/10 08:21:50;;;;;;;68.07;31.08;;;3.40;99.90;;;;;;5047608;28;20025;-80
2020/12/10 08:24:38;;;;;;;58.97;28.25;;;3.40;99.90;;;;;;5053498;28;20032;-80
2020/12/10 08:27:05;;;;;;;58.33;27.58;;;3.30;99.90;;;;;;5054076;28;20036;-80
2020/12/10 08:29:31;;;;;;;60.05;28.17;;;3.40;99.90;;;;;;5053020;28;20059;-81
2020/12/10 08:32:11;;;;;;;67.28;29.45;;;3.40;99.90;;;;;;5056748;28;20052;-80
2020/12/10 08:34:38;;;;;;;58.03;27.48;;;3.30;99.90;;;;;;5066845;28;20087;-80
2020/12/10 08:37:09;;;;;;;72.15;29.90;;;3.40;99.90;;;;;;5055174;28;20049;-83
2020/12/10 08:39:38;;;;;;;63.13;27.40;;;3.40;99.90;;;;;;5053770;28;20025;-80
2020/12/10 08:42:04;;;;;;;62.80;29.75;;;3.40;99.90;;;;;;5053183;28;20083;-80
2020/12/10 08:44:53;;;;;;;59.47;27.77;;;3.40;99.90;;;;;;5052129;28;20048;-80
2020/12/10 08:47:26;;;;;;;65.05;29.15;;;3.50;99.90;;;;;;5069087;28;20546;-80
2020/12/10 08:50:24;;;;;;;69.07;29.50;;;3.50;99.90;;;;;;5052269;28;20048;-80
2020/12/10 08:53:02;;;;;;;63.15;28.10;;;3.50;99.90;;;;;;5053147;28;20075;-81
2020/12/10 08:55:36;;;;;;;63.60;28.33;;;3.60;99.90;;;;;;5053516;28;20017;-81
2020/12/10 08:58:02;;;;;;;65.70;29.00;;;3.50;99.90;;;;;;5053067;28;20024;-80
2020/12/10 09:00:27;;;;;;;60.08;26.65;;;3.50;99.90;;;;;;5053406;28;20547;-81
2020/12/10 09:02:53;;;;;;;50.08;23.80;;;3.50;99.90;;;;;;5053503;28;20488;-81
2020/12/10 09:05:18;;;;;;;52.00;24.92;;;3.60;99.90;;;;;;5051923;28;20086;-83
2020/12/10 09:07:44;;;;;;;54.65;25.40;;;3.60;99.90;;;;;;5053471;28;20029;-83
2020/12/10 09:10:10;;;;;;;49.83;25.17;;;3.60;99.90;;;;;;5053193;28;20486;-83
2020/12/10 09:12:35;;;;;;;45.83;23.20;;;3.60;99.90;;;;;;5052814;28;20032;-84
2020/12/10 09:15:01;;;;;;;49.00;24.50;;;3.60;99.90;;;;;;5053015;28;20031;-83
2020/12/10 09:17:28;;;;;;;52.50;25.90;;;3.60;99.90;;;;;;5052052;28;20115;-83
2020/12/10 09:19:53;;;;;;;53.22;25.58;;;3.50;99.90;;;;;;5052717;28;20112;-82
2020/12/10 09:22:19;;;;;;;43.40;23.90;;;3.50;99.90;;;;;;5051599;28;20120;-82
2020/12/10 09:24:45;;;;;;;47.40;23.38;;;3.50;99.90;;;;;;5052167;28;20029;-81
2020/12/10 09:27:10;;;;;;;51.45;24.42;;;3.50;99.90;;;;;;5052836;28;20017;-81
2020/12/10 09:29:37;;;;;;;49.28;24.20;;;3.50;99.90;;;;;;5051462;28;20035;-81
2020/12/10 09:32:03;;;;;;;46.28;23.75;;;3.50;99.90;;;;;;5051681;28;20108;-82
2020/12/10 09:34:29;;;;;;;52.13;25.63;;;3.60;99.90;;;;;;5051509;28;20119;-81
2020/12/10 09:36:54;;;;;;;42.45;23.73;;;3.60;99.90;;;;;;5052869;28;20129;-81
2020/12/10 09:39:20;;;;;;;44.20;23.63;;;3.60;99.90;;;;;;5052643;28;20029;-81
2020/12/10 09:41:46;;;;;;;47.50;26.10;;;3.70;99.90;;;;;;5052338;28;20079;-80
2020/12/10 09:44:12;;;;;;;55.33;25.73;;;3.70;99.90;;;;;;5052487;28;20035;-80
2020/12/10 09:46:38;;;;;;;49.25;24.23;;;3.60;99.90;;;;;;5052431;28;20478;-82
2020/12/10 09:49:03;;;;;;;45.90;25.40;;;3.70;99.90;;;;;;5052439;28;20026;-81
2020/12/10 09:51:37;;;;;;;47.88;25.40;;;3.70;99.90;;;;;;5052526;28;20039;-79
2020/12/10 09:54:12;;;;;;;;;;;3.80;99.90;;;;;;5051501;28;20061;-80
2020/12/10 09:59:23;;;;;;;56.00;25.60;;;3.80;99.90;;;;;;5052316;28;20029;-80
2020/12/10 10:01:49;;;;;;;51.45;25.52;;;3.80;99.90;;;;;;5052320;28;20045;-80
2020/12/10 10:04:14;;;;;;;52.63;27.08;;;3.90;99.90;;;;;;5052206;28;20382;-80
2020/12/10 10:06:42;;;;;;;50.50;26.20;;;3.90;99.90;;;;;;5050611;28;20508;-81
2020/12/10 10:09:08;;;;;;;50.63;25.67;;;3.90;99.90;;;;;;5052334;28;20017;-81
2020/12/10 10:11:33;;;;;;;57.20;27.13;;;3.90;99.90;;;;;;5050822;28;20074;-81
2020/12/10 10:13:59;;;;;;;52.60;28.80;;;3.90;99.90;;;;;;5051842;28;20060;-81
2020/12/10 10:16:31;;;;;;;59.38;29.02;;;4.00;99.90;;;;;;5052110;28;20543;-81
2020/12/10 10:18:58;;;;;;;54.72;27.77;;;3.90;99.90;;;;;;5052020;28;20027;-80
2020/12/10 10:21:26;;;;;;;48.38;24.50;;;3.90;99.90;;;;;;5050648;28;20048;-80
2020/12/10 10:23:52;;;;;;;59.08;29.25;;;3.90;99.90;;;;;;5051980;28;20021;-80
2020/12/10 10:26:18;;;;;;;59.70;30.58;;;3.90;99.90;;;;;;5050705;28;20443;-81
2020/12/10 10:28:46;;;;;;;53.97;27.90;;;3.80;99.90;;;;;;5051447;28;20017;-81
2020/12/10 10:31:12;;;;;;;63.33;31.92;;;3.80;99.90;;;;;;5051849;28;20070;-81
2020/12/10 10:33:37;;;;;;;65.07;29.05;;;3.80;99.90;;;;;;5051759;28;20503;-81
2020/12/10 10:36:03;;;;;;;57.95;29.15;;;3.80;99.90;;;;;;5050194;28;20029;-80
2020/12/10 10:38:29;;;;;;;60.60;30.73;;;3.80;99.90;;;;;;5053938;28;20036;-81
2020/12/10 10:40:54;;;;;;;67.97;31.63;;;3.80;99.90;;;;;;5050049;28;20163;-80
2020/12/10 10:43:20;;;;;;;57.08;28.60;;;3.80;99.90;;;;;;5049891;28;20037;-81
2020/12/10 10:45:46;;;;;;;52.33;27.85;;;3.80;99.90;;;;;;5050280;28;20032;-81
2020/12/10 10:48:11;;;;;;;59.33;28.73;;;3.90;99.90;;;;;;5051384;28;20021;-81
2020/12/10 10:50:37;;;;;;;61.17;30.42;;;3.90;99.90;;;;;;5051333;28;20029;-81
2020/12/10 10:53:02;;;;;;;62.35;29.05;;;3.90;99.90;;;;;;5051159;28;20029;-80
2020/12/10 10:55:28;;;;;;;72.85;30.70;;;3.90;99.90;;;;;;5051316;28;20036;-82
2020/12/10 10:57:54;;;;;;;56.35;29.13;;;3.90;99.90;;;;;;5050039;28;20370;-82
2020/12/10 11:00:20;;;;;;;55.80;29.50;;;3.90;99.90;;;;;;5051284;28;20096;-82
2020/12/10 11:02:45;;;;;;;63.65;30.75;;;4.00;99.90;;;;;;5051083;28;20021;-80
2020/12/10 11:05:11;;;;;;;58.70;28.55;;;4.00;99.90;;;;;;5050543;28;20032;-80
2020/12/10 11:07:37;;;;;;;56.47;28.65;;;4.00;99.90;;;;;;5071319;28;20017;-80
2020/12/10 11:10:06;;;;;;;61.47;28.23;;;4.00;99.90;;;;;;5050915;28;20017;-81
2020/12/10 11:12:31;;;;;;;66.75;30.92;;;4.00;99.90;;;;;;5050543;28;20029;-82
2020/12/10 11:14:57;;;;;;;59.45;29.50;;;4.10;99.90;;;;;;5051256;28;20025;-81
2020/12/10 11:17:23;;;;;;;63.47;28.52;;;4.10;99.90;;;;;;5049843;28;20033;-81
2020/12/10 11:19:49;;;;;;;62.15;29.73;;;4.10;99.90;;;;;;5050828;28;20041;-83
2020/12/10 11:22:15;;;;;;;68.35;29.88;;;4.10;99.90;;;;;;5050066;28;20051;-83
2020/12/10 11:24:40;;;;;;;64.00;29.73;;;4.00;99.90;;;;;;5050958;28;20138;-81
2020/12/10 11:27:06;;;;;;;64.70;29.15;;;4.00;99.90;;;;;;5050765;28;20382;-81
2020/12/10 11:29:32;;;;;;;64.45;29.42;;;4.00;99.90;;;;;;5050982;28;20055;-81
2020/12/10 11:31:57;;;;;;;69.15;30.67;;;4.00;99.90;;;;;;5051195;28;20040;-81
2020/12/10 11:34:24;;;;;;;70.72;30.95;;;4.00;99.90;;;;;;5050624;28;20099;-81
2020/12/10 11:36:50;;;;;;;64.40;30.95;;;4.00;99.90;;;;;;5049663;28;20404;-79
2020/12/10 11:39:15;;;;;;;72.88;32.67;;;4.00;99.90;;;;;;5048897;28;20029;-80
2020/12/10 11:41:41;;;;;;;69.38;29.42;;;3.90;99.90;;;;;;5049829;28;20029;-81
2020/12/10 11:44:07;;;;;;;75.20;30.88;;;3.90;99.90;;;;;;5050416;28;20441;-80
2020/12/10 11:46:32;;;;;;;62.85;28.35;;;3.90;99.90;;;;;;5051085;28;20089;-80
2020/12/10 11:48:58;;;;;;;59.35;28.00;;;3.90;99.90;;;;;;5052584;28;20021;-81
2020/12/10 11:51:24;;;;;;;69.57;29.15;;;3.90;99.90;;;;;;5054573;28;20025;-81
2020/12/10 11:53:49;;;;;;;66.22;30.23;;;3.90;99.90;;;;;;5054029;28;20088;-82
2020/12/10 11:56:16;;;;;;;60.38;29.20;;;3.90;99.90;;;;;;5054630;28;20029;-79
2020/12/10 11:58:42;;;;;;;71.63;31.38;;;3.90;99.90;;;;;;5054414;28;20488;-80
2020/12/10 12:01:09;;;;;;;65.15;29.85;;;4.00;99.90;;;;;;5052961;28;20115;-80
2020/12/10 12:03:34;;;;;;;54.38;27.65;;;3.90;99.90;;;;;;5052668;28;20094;-80
2020/12/10 12:06:00;;;;;;;71.90;31.35;;;4.00;99.90;;;;;;5053142;28;20641;-80
2020/12/10 12:08:27;;;;;;;79.32;33.58;;;4.00;99.90;;;;;;5054592;28;20040;-80
2020/12/10 12:10:56;;;;;;;69.75;31.45;;;4.00;99.90;;;;;;5053350;28;20024;-80
2020/12/10 12:13:22;;;;;;;67.60;30.88;;;4.10;99.90;;;;;;5054280;28;20029;-80
2020/12/10 12:15:48;;;;;;;68.35;30.25;;;4.10;99.90;;;;;;5053883;28;20021;-81
2020/12/10 12:18:16;;;;;;;64.63;30.05;;;4.10;99.90;;;;;;5054394;28;20144;-81
2020/12/10 12:20:43;;;;;;;69.95;31.40;;;4.10;99.90;;;;;;5052675;28;20051;-81
2020/12/10 12:23:08;;;;;;;63.83;28.85;;;4.10;99.90;;;;;;5054117;28;20028;-81
2020/12/10 12:25:36;;;;;;;60.63;29.33;;;4.10;99.90;;;;;;5056263;28;20092;-80
2020/12/10 12:28:02;;;;;;;59.67;26.83;;;4.10;99.90;;;;;;5053530;28;20013;-81
2020/12/10 12:30:28;;;;;;;57.42;26.85;;;4.10;99.90;;;;;;5053668;28;20048;-80
2020/12/10 12:32:54;;;;;;;61.15;27.73;;;4.10;99.90;;;;;;5052827;28;20017;-80
2020/12/10 12:35:19;;;;;;;57.40;28.25;;;4.10;99.90;;;;;;5052332;28;20467;-80
2020/12/10 12:37:46;;;;;;;57.70;27.17;;;4.10;99.90;;;;;;5053718;28;20128;-81
2020/12/10 12:40:11;;;;;;;59.50;25.48;;;4.10;99.90;;;;;;5052691;28;20017;-81
2020/12/10 12:42:40;;;;;;;59.22;26.45;;;4.00;99.90;;;;;;5053447;28;20040;-81